sensor_id;sensor_type;location;lat;lon;timestamp;temperature;humidity
30889;DHT22;51092;50.874;7.024;2023-02-23T00:00:12;10.30;99.90
30889;DHT22;51092;50.874;7.024;2023-02-23T00:01:22;10.30;99.90
30889;DHT22;51092;50.874;7.024;2023-02-23T00:02:25;10.40;99.90
30889;DHT22;51092;50.874;7.024;2023-02-23T00:03:27;10.40;99.90
30889;DHT22;51092;50.874;7.024;2023-02-23T00:04:29;10.40;99.90
30889;DHT22;51092;50.874;7.024;2023-02-23T00:05:35;10.30;99.90
30889;DHT22;51092;50.874;7.024;2023-02-23T00:06:37;10.30;99.90
30889;DHT22;51092;50.874;7.024;2023-02-23T00:07:40;10.30;99.90
30889;DHT22;51092;50.874;7.024;2023-02-23T00:08:44;10.30;99.90
30889;DHT22;51092;50.874;7.024;2023-02-23T00:09:48;10.30;99.90
30889;DHT22;51092;50.874;7.024;2023-02-23T00:10:51;10.40;99.90
30889;DHT22;51092;50.874;7.024;2023-02-23T00:12:00;10.40;99.90
30889;DHT22;51092;50.874;7.024;2023-02-23T00:13:07;10.50;99.90
30889;DHT22;51092;50.874;7.024;2023-02-23T00:14:11;10.60;99.90
30889;DHT22;51092;50.874;7.024;2023-02-23T00:15:13;10.60;99.90
30889;DHT22;51092;50.874;7.024;2023-02-23T00:16:17;10.70;99.90
30889;DHT22;51092;50.874;7.024;2023-02-23T00:17:20;10.70;99.90
30889;DHT22;51092;50.874;7.024;2023-02-23T00:18:24;10.60;99.90
30889;DHT22;51092;50.874;7.024;2023-02-23T00:19:30;10.50;99.90
30889;DHT22;51092;50.874;7.024;2023-02-23T00:20:33;10.40;99.90
30889;DHT22;51092;50.874;7.024;2023-02-23T00:21:35;10.40;99.90
30889;DHT22;51092;50.874;7.024;2023-02-23T00:22:38;10.30;99.90
30889;DHT22;51092;50.874;7.024;2023-02-23T00:23:48;10.30;99.90
30889;DHT22;51092;50.874;7.024;2023-02-23T00:24:50;10.30;99.90
30889;DHT22;51092;50.874;7.024;2023-02-23T00:25:52;10.30;99.90
30889;DHT22;51092;50.874;7.024;2023-02-23T00:26:53;10.30;99.90
30889;DHT22;51092;50.874;7.024;2023-02-23T00:27:56;10.30;99.90
30889;DHT22;51092;50.874;7.024;2023-02-23T00:28:58;10.40;99.90
30889;DHT22;51092;50.874;7.024;2023-02-23T00:30:00;10.50;99.90
30889;DHT22;51092;50.874;7.024;2023-02-23T00:31:02;10.50;99.90
30889;DHT22;51092;50.874;7.024;2023-02-23T00:32:05;10.60;99.90
30889;DHT22;51092;50.874;7.024;2023-02-23T00:33:07;10.60;99.90
30889;DHT22;51092;50.874;7.024;2023-02-23T00:34:11;10.60;99.90
30889;DHT22;51092;50.874;7.024;2023-02-23T00:35:12;10.60;99.90
30889;DHT22;51092;50.874;7.024;2023-02-23T00:36:20;10.70;99.90
30889;DHT22;51092;50.874;7.024;2023-02-23T00:37:21;10.70;99.90
30889;DHT22;51092;50.874;7.024;2023-02-23T00:38:24;10.70;99.90
30889;DHT22;51092;50.874;7.024;2023-02-23T00:39:26;10.70;99.90
30889;DHT22;51092;50.874;7.024;2023-02-23T00:40:29;10.70;99.90
30889;DHT22;51092;50.874;7.024;2023-02-23T00:41:30;10.70;99.90
30889;DHT22;51092;50.874;7.024;2023-02-23T00:42:33;10.80;99.90
30889;DHT22;51092;50.874;7.024;2023-02-23T00:43:39;10.70;99.90
30889;DHT22;51092;50.874;7.024;2023-02-23T00:44:47;10.70;99.90
30889;DHT22;51092;50.874;7.024;2023-02-23T00:45:49;10.60;99.90
30889;DHT22;51092;50.874;7.024;2023-02-23T00:46:55;10.60;99.90
30889;DHT22;51092;50.874;7.024;2023-02-23T00:47:57;10.60;99.90
30889;DHT22;51092;50.874;7.024;2023-02-23T00:48:59;10.50;99.90
30889;DHT22;51092;50.874;7.024;2023-02-23T00:50:01;10.50;99.90
30889;DHT22;51092;50.874;7.024;2023-02-23T00:51:04;10.50;99.90
30889;DHT22;51092;50.874;7.024;2023-02-23T00:52:06;10.40;99.90
30889;DHT22;51092;50.874;7.024;2023-02-23T00:53:08;10.40;99.90
30889;DHT22;51092;50.874;7.024;2023-02-23T00:54:11;10.40;99.90
30889;DHT22;51092;50.874;7.024;2023-02-23T00:55:14;10.50;99.90
30889;DHT22;51092;50.874;7.024;2023-02-23T00:56:16;10.40;99.90
30889;DHT22;51092;50.874;7.024;2023-02-23T00:57:18;10.40;99.90
30889;DHT22;51092;50.874;7.024;2023-02-23T00:58:20;10.40;99.90
30889;DHT22;51092;50.874;7.024;2023-02-23T00:59:23;10.50;99.90
30889;DHT22;51092;50.874;7.024;2023-02-23T01:00:25;10.50;99.90
30889;DHT22;51092;50.874;7.024;2023-02-23T01:01:27;10.40;99.90
30889;DHT22;51092;50.874;7.024;2023-02-23T01:02:29;10.40;99.90
30889;DHT22;51092;50.874;7.024;2023-02-23T01:03:31;10.40;99.90
30889;DHT22;51092;50.874;7.024;2023-02-23T01:04:33;10.30;99.90
30889;DHT22;51092;50.874;7.024;2023-02-23T01:05:36;10.30;99.90
30889;DHT22;51092;50.874;7.024;2023-02-23T01:06:39;10.40;99.90
30889;DHT22;51092;50.874;7.024;2023-02-23T01:07:42;10.40;99.90
30889;DHT22;51092;50.874;7.024;2023-02-23T01:08:47;10.50;99.90
30889;DHT22;51092;50.874;7.024;2023-02-23T01:09:50;10.50;99.90
30889;DHT22;51092;50.874;7.024;2023-02-23T01:10:53;10.50;99.90
30889;DHT22;51092;50.874;7.024;2023-02-23T01:11:56;10.60;99.90
30889;DHT22;51092;50.874;7.024;2023-02-23T01:12:57;10.70;99.90
30889;DHT22;51092;50.874;7.024;2023-02-23T01:14:00;10.60;99.90
30889;DHT22;51092;50.874;7.024;2023-02-23T01:15:04;10.60;99.90
30889;DHT22;51092;50.874;7.024;2023-02-23T01:16:11;10.50;99.90
30889;DHT22;51092;50.874;7.024;2023-02-23T01:17:13;10.50;99.90
30889;DHT22;51092;50.874;7.024;2023-02-23T01:18:17;10.50;99.90
30889;DHT22;51092;50.874;7.024;2023-02-23T01:19:19;10.50;99.90
30889;DHT22;51092;50.874;7.024;2023-02-23T01:20:22;10.40;99.90
30889;DHT22;51092;50.874;7.024;2023-02-23T01:21:25;10.40;99.90
30889;DHT22;51092;50.874;7.024;2023-02-23T01:22:30;10.40;99.90
30889;DHT22;51092;50.874;7.024;2023-02-23T01:23:32;10.50;99.90
30889;DHT22;51092;50.874;7.024;2023-02-23T01:24:34;10.50;99.90
30889;DHT22;51092;50.874;7.024;2023-02-23T01:25:36;10.50;99.90
30889;DHT22;51092;50.874;7.024;2023-02-23T01:26:40;10.40;99.90
30889;DHT22;51092;50.874;7.024;2023-02-23T01:27:43;10.40;99.90
30889;DHT22;51092;50.874;7.024;2023-02-23T01:28:48;10.40;99.90
30889;DHT22;51092;50.874;7.024;2023-02-23T01:29:50;10.40;99.90
30889;DHT22;51092;50.874;7.024;2023-02-23T01:30:53;10.30;99.90
30889;DHT22;51092;50.874;7.024;2023-02-23T01:31:55;10.20;99.90
30889;DHT22;51092;50.874;7.024;2023-02-23T01:32:57;10.30;99.90
30889;DHT22;51092;50.874;7.024;2023-02-23T01:34:00;10.30;99.90
30889;DHT22;51092;50.874;7.024;2023-02-23T01:35:04;10.30;99.90
30889;DHT22;51092;50.874;7.024;2023-02-23T01:36:07;10.20;99.90
30889;DHT22;51092;50.874;7.024;2023-02-23T01:37:09;10.10;99.90
30889;DHT22;51092;50.874;7.024;2023-02-23T01:38:11;10.00;99.90
30889;DHT22;51092;50.874;7.024;2023-02-23T01:39:16;10.00;99.90
30889;DHT22;51092;50.874;7.024;2023-02-23T01:40:20;10.00;99.90
30889;DHT22;51092;50.874;7.024;2023-02-23T01:41:28;10.00;99.90
30889;DHT22;51092;50.874;7.024;2023-02-23T01:42:36;10.10;99.90
30889;DHT22;51092;50.874;7.024;2023-02-23T01:43:55;10.10;99.90
30889;DHT22;51092;50.874;7.024;2023-02-23T01:45:22;10.00;99.90
30889;DHT22;51092;50.874;7.024;2023-02-23T01:46:26;10.00;99.90
30889;DHT22;51092;50.874;7.024;2023-02-23T01:47:30;10.00;99.90
30889;DHT22;51092;50.874;7.024;2023-02-23T01:48:36;10.10;99.90
30889;DHT22;51092;50.874;7.024;2023-02-23T01:49:38;10.10;99.90
30889;DHT22;51092;50.874;7.024;2023-02-23T01:50:48;10.20;99.90
30889;DHT22;51092;50.874;7.024;2023-02-23T01:51:56;10.20;99.90
30889;DHT22;51092;50.874;7.024;2023-02-23T01:52:59;10.20;99.90
30889;DHT22;51092;50.874;7.024;2023-02-23T01:54:07;10.20;99.90
30889;DHT22;51092;50.874;7.024;2023-02-23T01:55:10;10.30;99.90
30889;DHT22;51092;50.874;7.024;2023-02-23T01:56:17;10.40;99.90
30889;DHT22;51092;50.874;7.024;2023-02-23T01:57:22;10.40;99.90
30889;DHT22;51092;50.874;7.024;2023-02-23T01:58:28;10.50;99.90
30889;DHT22;51092;50.874;7.024;2023-02-23T01:59:33;10.60;99.90
30889;DHT22;51092;50.874;7.024;2023-02-23T02:00:37;10.60;99.90
30889;DHT22;51092;50.874;7.024;2023-02-23T02:01:41;10.60;99.90
30889;DHT22;51092;50.874;7.024;2023-02-23T02:02:43;10.60;99.90
30889;DHT22;51092;50.874;7.024;2023-02-23T02:03:48;10.60;99.90
30889;DHT22;51092;50.874;7.024;2023-02-23T02:04:52;10.60;99.90
30889;DHT22;51092;50.874;7.024;2023-02-23T02:05:56;10.70;99.90
30889;DHT22;51092;50.874;7.024;2023-02-23T02:07:00;10.60;99.90
30889;DHT22;51092;50.874;7.024;2023-02-23T02:08:06;10.50;99.90
30889;DHT22;51092;50.874;7.024;2023-02-23T02:09:13;10.30;99.90
30889;DHT22;51092;50.874;7.024;2023-02-23T02:10:17;10.20;99.90
30889;DHT22;51092;50.874;7.024;2023-02-23T02:11:34;10.10;99.90
30889;DHT22;51092;50.874;7.024;2023-02-23T02:12:48;10.00;99.90
30889;DHT22;51092;50.874;7.024;2023-02-23T02:13:53;9.80;99.90
30889;DHT22;51092;50.874;7.024;2023-02-23T02:14:59;9.80;99.90
30889;DHT22;51092;50.874;7.024;2023-02-23T02:16:23;9.80;99.90
30889;DHT22;51092;50.874;7.024;2023-02-23T02:17:37;9.80;99.90
30889;DHT22;51092;50.874;7.024;2023-02-23T02:18:56;9.80;99.90
30889;DHT22;51092;50.874;7.024;2023-02-23T02:20:33;9.80;99.90
30889;DHT22;51092;50.874;7.024;2023-02-23T02:21:55;9.80;99.90
30889;DHT22;51092;50.874;7.024;2023-02-23T02:26:34;9.60;99.90
30889;DHT22;51092;50.874;7.024;2023-02-23T02:28:10;9.60;99.90
30889;DHT22;51092;50.874;7.024;2023-02-23T02:29:53;9.70;99.90
30889;DHT22;51092;50.874;7.024;2023-02-23T02:36:10;9.80;99.90
30889;DHT22;51092;50.874;7.024;2023-02-23T02:37:43;9.80;99.90
30889;DHT22;51092;50.874;7.024;2023-02-23T02:38:54;9.60;99.90
30889;DHT22;51092;50.874;7.024;2023-02-23T02:40:05;9.60;99.90
30889;DHT22;51092;50.874;7.024;2023-02-23T02:41:24;9.50;99.90
30889;DHT22;51092;50.874;7.024;2023-02-23T02:42:31;9.50;99.90
30889;DHT22;51092;50.874;7.024;2023-02-23T02:43:39;9.50;99.90
30889;DHT22;51092;50.874;7.024;2023-02-23T02:44:51;9.50;99.90
30889;DHT22;51092;50.874;7.024;2023-02-23T02:46:00;9.60;99.90
30889;DHT22;51092;50.874;7.024;2023-02-23T02:47:06;9.70;99.90
30889;DHT22;51092;50.874;7.024;2023-02-23T02:48:14;9.70;99.90
30889;DHT22;51092;50.874;7.024;2023-02-23T02:49:23;9.80;99.90
30889;DHT22;51092;50.874;7.024;2023-02-23T02:50:32;9.80;99.90
30889;DHT22;51092;50.874;7.024;2023-02-23T02:51:40;9.70;99.90
30889;DHT22;51092;50.874;7.024;2023-02-23T02:52:50;9.50;99.90
30889;DHT22;51092;50.874;7.024;2023-02-23T02:53:59;9.50;99.90
30889;DHT22;51092;50.874;7.024;2023-02-23T02:55:10;9.40;99.90
30889;DHT22;51092;50.874;7.024;2023-02-23T02:56:17;9.40;99.90
30889;DHT22;51092;50.874;7.024;2023-02-23T02:57:22;9.40;99.90
30889;DHT22;51092;50.874;7.024;2023-02-23T02:58:26;9.40;99.90
30889;DHT22;51092;50.874;7.024;2023-02-23T02:59:28;9.40;99.90
30889;DHT22;51092;50.874;7.024;2023-02-23T03:00:49;9.40;99.90
30889;DHT22;51092;50.874;7.024;2023-02-23T03:02:14;9.40;99.90
30889;DHT22;51092;50.874;7.024;2023-02-23T03:03:36;9.40;99.90
30889;DHT22;51092;50.874;7.024;2023-02-23T03:04:57;9.40;99.90
30889;DHT22;51092;50.874;7.024;2023-02-23T03:06:18;9.30;99.90
30889;DHT22;51092;50.874;7.024;2023-02-23T03:07:41;9.30;99.90
30889;DHT22;51092;50.874;7.024;2023-02-23T03:09:10;9.20;99.90
30889;DHT22;51092;50.874;7.024;2023-02-23T03:10:40;9.20;99.90
30889;DHT22;51092;50.874;7.024;2023-02-23T03:12:10;9.30;99.90
30889;DHT22;51092;50.874;7.024;2023-02-23T03:13:38;9.30;99.90
30889;DHT22;51092;50.874;7.024;2023-02-23T03:15:07;9.30;99.90
30889;DHT22;51092;50.874;7.024;2023-02-23T03:16:38;9.30;99.90
30889;DHT22;51092;50.874;7.024;2023-02-23T03:18:08;9.40;99.90
30889;DHT22;51092;50.874;7.024;2023-02-23T03:19:35;9.40;99.90
30889;DHT22;51092;50.874;7.024;2023-02-23T03:21:03;9.40;99.90
30889;DHT22;51092;50.874;7.024;2023-02-23T03:22:29;9.30;99.90
30889;DHT22;51092;50.874;7.024;2023-02-23T03:23:55;9.30;99.90
30889;DHT22;51092;50.874;7.024;2023-02-23T03:25:25;9.30;99.90
30889;DHT22;51092;50.874;7.024;2023-02-23T03:26:50;9.20;99.90
30889;DHT22;51092;50.874;7.024;2023-02-23T03:28:13;9.30;99.90
30889;DHT22;51092;50.874;7.024;2023-02-23T03:29:39;9.30;99.90
30889;DHT22;51092;50.874;7.024;2023-02-23T03:31:07;9.30;99.90
30889;DHT22;51092;50.874;7.024;2023-02-23T03:32:30;9.20;99.90
30889;DHT22;51092;50.874;7.024;2023-02-23T03:33:58;9.20;99.90
30889;DHT22;51092;50.874;7.024;2023-02-23T03:35:24;9.20;99.90
30889;DHT22;51092;50.874;7.024;2023-02-23T03:36:51;9.20;99.90
30889;DHT22;51092;50.874;7.024;2023-02-23T03:38:15;9.10;99.90
30889;DHT22;51092;50.874;7.024;2023-02-23T03:39:41;9.10;99.90
30889;DHT22;51092;50.874;7.024;2023-02-23T03:41:04;9.10;99.90
30889;DHT22;51092;50.874;7.024;2023-02-23T03:42:29;9.10;99.90
30889;DHT22;51092;50.874;7.024;2023-02-23T03:43:52;9.10;99.90
30889;DHT22;51092;50.874;7.024;2023-02-23T03:45:18;9.10;99.90
30889;DHT22;51092;50.874;7.024;2023-02-23T03:46:40;9.20;99.90
30889;DHT22;51092;50.874;7.024;2023-02-23T03:48:02;9.20;99.90
30889;DHT22;51092;50.874;7.024;2023-02-23T03:49:26;9.20;99.90
30889;DHT22;51092;50.874;7.024;2023-02-23T03:50:51;9.30;99.90
30889;DHT22;51092;50.874;7.024;2023-02-23T03:52:15;9.30;99.90
30889;DHT22;51092;50.874;7.024;2023-02-23T03:53:39;9.20;99.90
30889;DHT22;51092;50.874;7.024;2023-02-23T03:55:04;9.20;99.90
30889;DHT22;51092;50.874;7.024;2023-02-23T03:56:31;9.10;99.90
30889;DHT22;51092;50.874;7.024;2023-02-23T03:57:54;9.10;99.90
30889;DHT22;51092;50.874;7.024;2023-02-23T03:59:23;9.10;99.90
30889;DHT22;51092;50.874;7.024;2023-02-23T04:00:48;9.20;99.90
30889;DHT22;51092;50.874;7.024;2023-02-23T04:02:10;9.10;99.90
30889;DHT22;51092;50.874;7.024;2023-02-23T04:03:34;9.10;99.90
30889;DHT22;51092;50.874;7.024;2023-02-23T04:04:58;9.10;99.90
30889;DHT22;51092;50.874;7.024;2023-02-23T04:06:23;9.10;99.90
30889;DHT22;51092;50.874;7.024;2023-02-23T04:07:45;9.10;99.90
30889;DHT22;51092;50.874;7.024;2023-02-23T04:09:06;9.10;99.90
30889;DHT22;51092;50.874;7.024;2023-02-23T04:10:27;9.10;99.90
30889;DHT22;51092;50.874;7.024;2023-02-23T04:11:51;9.10;99.90
30889;DHT22;51092;50.874;7.024;2023-02-23T04:13:16;9.10;99.90
30889;DHT22;51092;50.874;7.024;2023-02-23T04:14:22;9.10;99.90
30889;DHT22;51092;50.874;7.024;2023-02-23T04:15:28;9.10;99.90
30889;DHT22;51092;50.874;7.024;2023-02-23T04:16:31;9.20;99.90
30889;DHT22;51092;50.874;7.024;2023-02-23T04:17:33;9.10;99.90
30889;DHT22;51092;50.874;7.024;2023-02-23T04:18:37;9.10;99.90
30889;DHT22;51092;50.874;7.024;2023-02-23T04:19:48;9.20;99.90
30889;DHT22;51092;50.874;7.024;2023-02-23T04:20:51;9.10;99.90
30889;DHT22;51092;50.874;7.024;2023-02-23T04:21:52;9.10;99.90
30889;DHT22;51092;50.874;7.024;2023-02-23T04:22:55;9.10;99.90
30889;DHT22;51092;50.874;7.024;2023-02-23T04:23:57;9.10;99.90
30889;DHT22;51092;50.874;7.024;2023-02-23T04:24:59;9.20;99.90
30889;DHT22;51092;50.874;7.024;2023-02-23T04:26:01;9.10;99.90
30889;DHT22;51092;50.874;7.024;2023-02-23T04:27:06;9.20;99.90
30889;DHT22;51092;50.874;7.024;2023-02-23T04:28:08;9.10;99.90
30889;DHT22;51092;50.874;7.024;2023-02-23T04:29:10;9.20;99.90
30889;DHT22;51092;50.874;7.024;2023-02-23T04:30:12;9.20;99.90
30889;DHT22;51092;50.874;7.024;2023-02-23T04:31:15;9.20;99.90
30889;DHT22;51092;50.874;7.024;2023-02-23T04:32:19;9.30;99.90
30889;DHT22;51092;50.874;7.024;2023-02-23T04:33:22;9.20;99.90
30889;DHT22;51092;50.874;7.024;2023-02-23T04:34:25;9.30;99.90
30889;DHT22;51092;50.874;7.024;2023-02-23T04:35:27;9.20;99.90
30889;DHT22;51092;50.874;7.024;2023-02-23T04:36:31;9.20;99.90
30889;DHT22;51092;50.874;7.024;2023-02-23T04:37:33;9.20;99.90
30889;DHT22;51092;50.874;7.024;2023-02-23T04:38:35;9.20;99.90
30889;DHT22;51092;50.874;7.024;2023-02-23T04:39:38;9.10;99.90
30889;DHT22;51092;50.874;7.024;2023-02-23T04:40:39;9.20;99.90
30889;DHT22;51092;50.874;7.024;2023-02-23T04:41:42;9.20;99.90
30889;DHT22;51092;50.874;7.024;2023-02-23T04:42:45;9.20;99.90
30889;DHT22;51092;50.874;7.024;2023-02-23T04:43:47;9.20;99.90
30889;DHT22;51092;50.874;7.024;2023-02-23T04:44:49;9.20;99.90
30889;DHT22;51092;50.874;7.024;2023-02-23T04:45:51;9.20;99.90
30889;DHT22;51092;50.874;7.024;2023-02-23T04:46:54;9.20;99.90
30889;DHT22;51092;50.874;7.024;2023-02-23T04:47:57;9.20;99.90
30889;DHT22;51092;50.874;7.024;2023-02-23T04:48:58;9.20;99.90
30889;DHT22;51092;50.874;7.024;2023-02-23T04:50:01;9.20;99.90
30889;DHT22;51092;50.874;7.024;2023-02-23T04:51:03;9.10;99.90
30889;DHT22;51092;50.874;7.024;2023-02-23T04:52:06;9.20;99.90
30889;DHT22;51092;50.874;7.024;2023-02-23T04:53:07;9.10;99.90
30889;DHT22;51092;50.874;7.024;2023-02-23T04:54:09;9.10;99.90
30889;DHT22;51092;50.874;7.024;2023-02-23T04:55:16;9.10;99.90
30889;DHT22;51092;50.874;7.024;2023-02-23T04:56:19;9.10;99.90
30889;DHT22;51092;50.874;7.024;2023-02-23T04:57:20;9.10;99.90
30889;DHT22;51092;50.874;7.024;2023-02-23T04:58:24;9.10;99.90
30889;DHT22;51092;50.874;7.024;2023-02-23T04:59:25;9.10;99.90
30889;DHT22;51092;50.874;7.024;2023-02-23T05:00:29;9.20;99.90
30889;DHT22;51092;50.874;7.024;2023-02-23T05:01:31;9.20;99.90
30889;DHT22;51092;50.874;7.024;2023-02-23T05:02:34;9.20;99.90
30889;DHT22;51092;50.874;7.024;2023-02-23T05:03:35;9.40;99.90
30889;DHT22;51092;50.874;7.024;2023-02-23T05:04:38;9.40;99.90
30889;DHT22;51092;50.874;7.024;2023-02-23T05:05:39;9.40;99.90
30889;DHT22;51092;50.874;7.024;2023-02-23T05:06:42;9.30;99.90
30889;DHT22;51092;50.874;7.024;2023-02-23T05:07:43;9.30;99.90
30889;DHT22;51092;50.874;7.024;2023-02-23T05:08:46;9.30;99.90
30889;DHT22;51092;50.874;7.024;2023-02-23T05:09:47;9.30;99.90
30889;DHT22;51092;50.874;7.024;2023-02-23T05:10:50;9.30;99.90
30889;DHT22;51092;50.874;7.024;2023-02-23T05:11:51;9.40;99.90
30889;DHT22;51092;50.874;7.024;2023-02-23T05:12:54;9.50;99.90
30889;DHT22;51092;50.874;7.024;2023-02-23T05:13:56;9.50;99.90
30889;DHT22;51092;50.874;7.024;2023-02-23T05:14:59;9.60;99.90
30889;DHT22;51092;50.874;7.024;2023-02-23T05:16:00;9.60;99.90
30889;DHT22;51092;50.874;7.024;2023-02-23T05:17:03;9.70;99.90
30889;DHT22;51092;50.874;7.024;2023-02-23T05:18:04;9.70;99.90
30889;DHT22;51092;50.874;7.024;2023-02-23T05:19:07;9.60;99.90
30889;DHT22;51092;50.874;7.024;2023-02-23T05:20:10;9.70;99.90
30889;DHT22;51092;50.874;7.024;2023-02-23T05:21:13;9.70;99.90
30889;DHT22;51092;50.874;7.024;2023-02-23T05:22:14;9.70;99.90
30889;DHT22;51092;50.874;7.024;2023-02-23T05:23:17;9.80;99.90
30889;DHT22;51092;50.874;7.024;2023-02-23T05:24:18;9.80;99.90
30889;DHT22;51092;50.874;7.024;2023-02-23T05:25:21;9.80;99.90
30889;DHT22;51092;50.874;7.024;2023-02-23T05:26:24;9.70;99.90
30889;DHT22;51092;50.874;7.024;2023-02-23T05:27:27;9.60;99.90
30889;DHT22;51092;50.874;7.024;2023-02-23T05:28:28;9.60;99.90
30889;DHT22;51092;50.874;7.024;2023-02-23T05:29:32;9.50;99.90
30889;DHT22;51092;50.874;7.024;2023-02-23T05:30:34;9.50;99.90
30889;DHT22;51092;50.874;7.024;2023-02-23T05:31:36;9.40;99.90
30889;DHT22;51092;50.874;7.024;2023-02-23T05:32:38;9.30;99.90
30889;DHT22;51092;50.874;7.024;2023-02-23T05:33:40;9.30;99.90
30889;DHT22;51092;50.874;7.024;2023-02-23T05:34:42;9.30;99.90
30889;DHT22;51092;50.874;7.024;2023-02-23T05:35:45;9.30;99.90
30889;DHT22;51092;50.874;7.024;2023-02-23T05:36:46;9.30;99.90
30889;DHT22;51092;50.874;7.024;2023-02-23T05:37:47;9.40;99.90
30889;DHT22;51092;50.874;7.024;2023-02-23T05:38:48;9.40;99.90
30889;DHT22;51092;50.874;7.024;2023-02-23T05:39:50;9.50;99.90
30889;DHT22;51092;50.874;7.024;2023-02-23T05:40:52;9.50;99.90
30889;DHT22;51092;50.874;7.024;2023-02-23T05:41:54;9.50;99.90
30889;DHT22;51092;50.874;7.024;2023-02-23T05:42:58;9.60;99.90
30889;DHT22;51092;50.874;7.024;2023-02-23T05:44:01;9.70;99.90
30889;DHT22;51092;50.874;7.024;2023-02-23T05:45:05;9.70;99.90
30889;DHT22;51092;50.874;7.024;2023-02-23T05:46:10;9.70;99.90
30889;DHT22;51092;50.874;7.024;2023-02-23T05:47:12;9.70;99.90
30889;DHT22;51092;50.874;7.024;2023-02-23T05:48:14;9.70;99.90
30889;DHT22;51092;50.874;7.024;2023-02-23T05:49:16;9.70;99.90
30889;DHT22;51092;50.874;7.024;2023-02-23T05:50:19;9.60;99.90
30889;DHT22;51092;50.874;7.024;2023-02-23T05:51:20;9.60;99.90
30889;DHT22;51092;50.874;7.024;2023-02-23T05:52:23;9.60;99.90
30889;DHT22;51092;50.874;7.024;2023-02-23T05:53:25;9.60;99.90
30889;DHT22;51092;50.874;7.024;2023-02-23T05:54:27;9.50;99.90
30889;DHT22;51092;50.874;7.024;2023-02-23T05:55:30;9.60;99.90
30889;DHT22;51092;50.874;7.024;2023-02-23T05:56:31;9.60;99.90
30889;DHT22;51092;50.874;7.024;2023-02-23T05:57:34;9.60;99.90
30889;DHT22;51092;50.874;7.024;2023-02-23T05:58:36;9.50;99.90
30889;DHT22;51092;50.874;7.024;2023-02-23T05:59:39;9.50;99.90
30889;DHT22;51092;50.874;7.024;2023-02-23T06:00:42;9.50;99.90
30889;DHT22;51092;50.874;7.024;2023-02-23T06:01:44;9.50;99.90
30889;DHT22;51092;50.874;7.024;2023-02-23T06:02:45;9.50;99.90
30889;DHT22;51092;50.874;7.024;2023-02-23T06:03:47;9.60;99.90
30889;DHT22;51092;50.874;7.024;2023-02-23T06:04:48;9.60;99.90
30889;DHT22;51092;50.874;7.024;2023-02-23T06:05:52;9.50;99.90
30889;DHT22;51092;50.874;7.024;2023-02-23T06:06:53;9.50;99.90
30889;DHT22;51092;50.874;7.024;2023-02-23T06:07:55;9.40;99.90
30889;DHT22;51092;50.874;7.024;2023-02-23T06:08:58;9.50;99.90
30889;DHT22;51092;50.874;7.024;2023-02-23T06:10:02;9.50;99.90
30889;DHT22;51092;50.874;7.024;2023-02-23T06:11:03;9.50;99.90
30889;DHT22;51092;50.874;7.024;2023-02-23T06:12:06;9.50;99.90
30889;DHT22;51092;50.874;7.024;2023-02-23T06:13:09;9.40;99.90
30889;DHT22;51092;50.874;7.024;2023-02-23T06:14:11;9.40;99.90
30889;DHT22;51092;50.874;7.024;2023-02-23T06:15:13;9.30;99.90
30889;DHT22;51092;50.874;7.024;2023-02-23T06:16:17;9.20;99.90
30889;DHT22;51092;50.874;7.024;2023-02-23T06:17:21;9.20;99.90
30889;DHT22;51092;50.874;7.024;2023-02-23T06:18:22;9.20;99.90
30889;DHT22;51092;50.874;7.024;2023-02-23T06:19:25;9.10;99.90
30889;DHT22;51092;50.874;7.024;2023-02-23T06:20:26;9.00;99.90
30889;DHT22;51092;50.874;7.024;2023-02-23T06:21:29;9.00;99.90
30889;DHT22;51092;50.874;7.024;2023-02-23T06:22:31;9.00;99.90
30889;DHT22;51092;50.874;7.024;2023-02-23T06:23:33;9.00;99.90
30889;DHT22;51092;50.874;7.024;2023-02-23T06:24:35;9.10;99.90
30889;DHT22;51092;50.874;7.024;2023-02-23T06:25:37;9.10;99.90
30889;DHT22;51092;50.874;7.024;2023-02-23T06:26:38;9.00;99.90
30889;DHT22;51092;50.874;7.024;2023-02-23T06:27:41;9.00;99.90
30889;DHT22;51092;50.874;7.024;2023-02-23T06:28:43;9.00;99.90
30889;DHT22;51092;50.874;7.024;2023-02-23T06:29:45;9.00;99.90
30889;DHT22;51092;50.874;7.024;2023-02-23T06:30:46;9.10;99.90
30889;DHT22;51092;50.874;7.024;2023-02-23T06:31:49;9.10;99.90
30889;DHT22;51092;50.874;7.024;2023-02-23T06:32:50;9.10;99.90
30889;DHT22;51092;50.874;7.024;2023-02-23T06:33:53;9.10;99.90
30889;DHT22;51092;50.874;7.024;2023-02-23T06:34:54;9.00;99.90
30889;DHT22;51092;50.874;7.024;2023-02-23T06:35:57;9.00;99.90
30889;DHT22;51092;50.874;7.024;2023-02-23T06:36:58;9.00;99.90
30889;DHT22;51092;50.874;7.024;2023-02-23T06:38:01;9.00;99.90
30889;DHT22;51092;50.874;7.024;2023-02-23T06:39:03;8.90;99.90
30889;DHT22;51092;50.874;7.024;2023-02-23T06:40:06;8.90;99.90
30889;DHT22;51092;50.874;7.024;2023-02-23T06:41:09;9.00;99.90
30889;DHT22;51092;50.874;7.024;2023-02-23T06:42:12;9.00;99.90
30889;DHT22;51092;50.874;7.024;2023-02-23T06:43:14;8.90;99.90
30889;DHT22;51092;50.874;7.024;2023-02-23T06:44:15;9.00;99.90
30889;DHT22;51092;50.874;7.024;2023-02-23T06:45:18;9.00;99.90
30889;DHT22;51092;50.874;7.024;2023-02-23T06:46:19;8.90;99.90
30889;DHT22;51092;50.874;7.024;2023-02-23T06:47:22;8.90;99.90
30889;DHT22;51092;50.874;7.024;2023-02-23T06:48:23;8.90;99.90
30889;DHT22;51092;50.874;7.024;2023-02-23T06:49:26;8.90;99.90
30889;DHT22;51092;50.874;7.024;2023-02-23T06:50:27;8.90;99.90
30889;DHT22;51092;50.874;7.024;2023-02-23T06:51:30;8.90;99.90
30889;DHT22;51092;50.874;7.024;2023-02-23T06:52:31;8.90;99.90
30889;DHT22;51092;50.874;7.024;2023-02-23T06:53:34;8.90;99.90
30889;DHT22;51092;50.874;7.024;2023-02-23T06:54:37;8.90;99.90
30889;DHT22;51092;50.874;7.024;2023-02-23T06:55:40;8.90;99.90
30889;DHT22;51092;50.874;7.024;2023-02-23T06:56:42;8.90;99.90
30889;DHT22;51092;50.874;7.024;2023-02-23T06:57:44;9.00;99.90
30889;DHT22;51092;50.874;7.024;2023-02-23T06:58:49;9.10;99.90
30889;DHT22;51092;50.874;7.024;2023-02-23T06:59:51;9.20;99.90
30889;DHT22;51092;50.874;7.024;2023-02-23T07:00:54;9.30;99.90
30889;DHT22;51092;50.874;7.024;2023-02-23T07:01:58;9.40;99.90
30889;DHT22;51092;50.874;7.024;2023-02-23T07:03:01;9.50;99.90
30889;DHT22;51092;50.874;7.024;2023-02-23T07:04:04;9.50;99.90
30889;DHT22;51092;50.874;7.024;2023-02-23T07:05:06;9.70;99.90
30889;DHT22;51092;50.874;7.024;2023-02-23T07:06:08;9.60;99.90
30889;DHT22;51092;50.874;7.024;2023-02-23T07:07:10;9.50;99.90
30889;DHT22;51092;50.874;7.024;2023-02-23T07:08:13;9.50;99.90
30889;DHT22;51092;50.874;7.024;2023-02-23T07:09:15;9.50;99.90
30889;DHT22;51092;50.874;7.024;2023-02-23T07:10:17;9.50;99.90
30889;DHT22;51092;50.874;7.024;2023-02-23T07:11:19;9.50;99.90
30889;DHT22;51092;50.874;7.024;2023-02-23T07:12:22;9.50;99.90
30889;DHT22;51092;50.874;7.024;2023-02-23T07:13:23;9.50;99.90
30889;DHT22;51092;50.874;7.024;2023-02-23T07:14:26;9.50;99.90
30889;DHT22;51092;50.874;7.024;2023-02-23T07:15:28;9.60;99.90